Bowling Green, South Carolina
Current Conditions -  °F | °C
As of 9:31 AM on Sunday 23 Nov 2014 (Local Time) from KAKH Reporting Station
Haze Haze  
Wind Chill:   Ceiling: 6500
Heat Index:   Visibility: 6mi
Dew Point:   Wind: 7mph
Humidity: 86%   Direction: 30°NNE
Pressure: 30.19"   Gusts: NA
Location:  35.15°N, 81.21°W
Report Text: KAKH 231431Z AUTO 03006KT 6SM BR SCT008 BKN065 OVC110 06/04 A3019 RMK AO2 RAB00E25 P0000 T00610039
Loading
Personal Weather Stations






























Interactive Weather Map New forecast layout! Learn more

10-Day Weather Forecast

Advertisements
Track Severe Weather on mobile